sensor_id;sensor_type;location;lat;lon;timestamp;temperature;humidity
26954;DHT22;14508;50.924;11.600;2023-12-22T00:00:34;3.60;99.90
26954;DHT22;14508;50.924;11.600;2023-12-22T00:03:03;3.60;99.90
26954;DHT22;14508;50.924;11.600;2023-12-22T00:05:31;3.60;99.90
26954;DHT22;14508;50.924;11.600;2023-12-22T00:07:59;3.50;99.90
26954;DHT22;14508;50.924;11.600;2023-12-22T00:10:28;3.50;99.90
26954;DHT22;14508;50.924;11.600;2023-12-22T00:12:56;3.50;99.90
26954;DHT22;14508;50.924;11.600;2023-12-22T00:15:24;3.50;99.90
26954;DHT22;14508;50.924;11.600;2023-12-22T00:17:52;3.50;99.90
26954;DHT22;14508;50.924;11.600;2023-12-22T00:20:20;3.50;99.90
26954;DHT22;14508;50.924;11.600;2023-12-22T00:22:48;3.40;99.90
26954;DHT22;14508;50.924;11.600;2023-12-22T00:25:16;3.50;99.90
26954;DHT22;14508;50.924;11.600;2023-12-22T00:27:45;3.60;99.90
26954;DHT22;14508;50.924;11.600;2023-12-22T00:30:13;3.70;99.90
26954;DHT22;14508;50.924;11.600;2023-12-22T00:32:41;3.70;99.90
26954;DHT22;14508;50.924;11.600;2023-12-22T00:35:09;3.70;99.90
26954;DHT22;14508;50.924;11.600;2023-12-22T00:37:37;3.80;99.90
26954;DHT22;14508;50.924;11.600;2023-12-22T00:40:06;3.90;99.90
26954;DHT22;14508;50.924;11.600;2023-12-22T00:42:35;3.80;99.90
26954;DHT22;14508;50.924;11.600;2023-12-22T00:45:05;3.80;99.90
26954;DHT22;14508;50.924;11.600;2023-12-22T00:47:33;3.90;99.90
26954;DHT22;14508;50.924;11.600;2023-12-22T00:50:03;3.90;99.90
26954;DHT22;14508;50.924;11.600;2023-12-22T00:52:32;3.80;99.90
26954;DHT22;14508;50.924;11.600;2023-12-22T00:55:00;3.90;99.90
26954;DHT22;14508;50.924;11.600;2023-12-22T00:57:28;3.90;99.90
26954;DHT22;14508;50.924;11.600;2023-12-22T00:59:56;4.00;99.90
26954;DHT22;14508;50.924;11.600;2023-12-22T01:02:26;4.10;99.90
26954;DHT22;14508;50.924;11.600;2023-12-22T01:04:54;4.00;99.90
26954;DHT22;14508;50.924;11.600;2023-12-22T01:07:22;4.00;99.90
26954;DHT22;14508;50.924;11.600;2023-12-22T01:09:50;4.10;99.90
26954;DHT22;14508;50.924;11.600;2023-12-22T01:12:17;4.10;99.90
26954;DHT22;14508;50.924;11.600;2023-12-22T01:14:45;4.20;99.90
26954;DHT22;14508;50.924;11.600;2023-12-22T01:17:15;4.20;99.90
26954;DHT22;14508;50.924;11.600;2023-12-22T01:19:44;4.10;99.90
26954;DHT22;14508;50.924;11.600;2023-12-22T01:22:13;4.00;99.90
26954;DHT22;14508;50.924;11.600;2023-12-22T01:24:41;4.00;99.90
26954;DHT22;14508;50.924;11.600;2023-12-22T01:27:10;4.00;99.90
26954;DHT22;14508;50.924;11.600;2023-12-22T01:29:38;4.00;99.90
26954;DHT22;14508;50.924;11.600;2023-12-22T01:32:06;4.00;99.90
26954;DHT22;14508;50.924;11.600;2023-12-22T01:34:34;3.90;99.90
26954;DHT22;14508;50.924;11.600;2023-12-22T01:37:03;3.80;99.90
26954;DHT22;14508;50.924;11.600;2023-12-22T01:39:31;3.90;99.90
26954;DHT22;14508;50.924;11.600;2023-12-22T01:41:59;3.90;99.90
26954;DHT22;14508;50.924;11.600;2023-12-22T01:44:27;3.80;99.90
26954;DHT22;14508;50.924;11.600;2023-12-22T01:46:55;3.90;99.90
26954;DHT22;14508;50.924;11.600;2023-12-22T01:49:23;3.90;99.90
26954;DHT22;14508;50.924;11.600;2023-12-22T01:51:53;3.90;99.90
26954;DHT22;14508;50.924;11.600;2023-12-22T01:54:22;3.80;99.90
26954;DHT22;14508;50.924;11.600;2023-12-22T01:56:50;3.70;99.90
26954;DHT22;14508;50.924;11.600;2023-12-22T01:59:18;3.90;99.90
26954;DHT22;14508;50.924;11.600;2023-12-22T02:01:46;3.80;99.90
26954;DHT22;14508;50.924;11.600;2023-12-22T02:04:15;3.80;99.90
26954;DHT22;14508;50.924;11.600;2023-12-22T02:06:43;3.90;99.90
26954;DHT22;14508;50.924;11.600;2023-12-22T02:09:11;3.90;99.90
26954;DHT22;14508;50.924;11.600;2023-12-22T02:11:40;3.90;99.90
26954;DHT22;14508;50.924;11.600;2023-12-22T02:14:08;3.90;99.90
26954;DHT22;14508;50.924;11.600;2023-12-22T02:16:44;4.00;99.90
26954;DHT22;14508;50.924;11.600;2023-12-22T02:19:23;4.00;99.90
26954;DHT22;14508;50.924;11.600;2023-12-22T02:22:02;4.00;99.90
26954;DHT22;14508;50.924;11.600;2023-12-22T02:24:36;4.10;99.90
26954;DHT22;14508;50.924;11.600;2023-12-22T02:27:06;4.00;99.90
26954;DHT22;14508;50.924;11.600;2023-12-22T02:29:43;4.00;99.90
26954;DHT22;14508;50.924;11.600;2023-12-22T02:32:19;4.00;99.90
26954;DHT22;14508;50.924;11.600;2023-12-22T02:34:51;3.90;99.90
26954;DHT22;14508;50.924;11.600;2023-12-22T02:37:20;3.90;99.90
26954;DHT22;14508;50.924;11.600;2023-12-22T02:39:51;3.90;99.90
26954;DHT22;14508;50.924;11.600;2023-12-22T02:42:20;3.90;99.90
26954;DHT22;14508;50.924;11.600;2023-12-22T02:44:51;4.00;99.90
26954;DHT22;14508;50.924;11.600;2023-12-22T02:47:20;4.10;99.90
26954;DHT22;14508;50.924;11.600;2023-12-22T02:49:47;4.00;99.90
26954;DHT22;14508;50.924;11.600;2023-12-22T02:52:15;3.90;99.90
26954;DHT22;14508;50.924;11.600;2023-12-22T02:54:43;4.00;99.90
26954;DHT22;14508;50.924;11.600;2023-12-22T02:57:12;4.00;99.90
26954;DHT22;14508;50.924;11.600;2023-12-22T02:59:40;4.00;99.90
26954;DHT22;14508;50.924;11.600;2023-12-22T03:02:08;4.10;99.90
26954;DHT22;14508;50.924;11.600;2023-12-22T03:04:36;4.00;99.90
26954;DHT22;14508;50.924;11.600;2023-12-22T03:07:04;4.00;99.90
26954;DHT22;14508;50.924;11.600;2023-12-22T03:09:32;4.00;99.90
26954;DHT22;14508;50.924;11.600;2023-12-22T03:12:05;4.00;99.90
26954;DHT22;14508;50.924;11.600;2023-12-22T03:14:35;4.00;99.90
26954;DHT22;14508;50.924;11.600;2023-12-22T03:17:04;4.00;99.90
26954;DHT22;14508;50.924;11.600;2023-12-22T03:19:33;4.00;99.90
26954;DHT22;14508;50.924;11.600;2023-12-22T03:22:01;4.00;99.90
26954;DHT22;14508;50.924;11.600;2023-12-22T03:24:29;3.90;99.90
26954;DHT22;14508;50.924;11.600;2023-12-22T03:26:57;3.80;99.90
26954;DHT22;14508;50.924;11.600;2023-12-22T03:29:25;3.80;99.90
26954;DHT22;14508;50.924;11.600;2023-12-22T03:31:54;3.70;99.90
26954;DHT22;14508;50.924;11.600;2023-12-22T03:34:22;3.60;99.90
26954;DHT22;14508;50.924;11.600;2023-12-22T03:36:50;3.60;99.90
26954;DHT22;14508;50.924;11.600;2023-12-22T03:39:18;3.60;99.90
26954;DHT22;14508;50.924;11.600;2023-12-22T03:41:45;3.50;99.90
26954;DHT22;14508;50.924;11.600;2023-12-22T03:44:13;3.50;99.90
26954;DHT22;14508;50.924;11.600;2023-12-22T03:46:41;3.60;99.90
26954;DHT22;14508;50.924;11.600;2023-12-22T03:49:09;3.60;99.90
26954;DHT22;14508;50.924;11.600;2023-12-22T03:51:37;3.60;99.90
26954;DHT22;14508;50.924;11.600;2023-12-22T03:54:08;3.50;99.90
26954;DHT22;14508;50.924;11.600;2023-12-22T03:56:36;3.50;99.90
26954;DHT22;14508;50.924;11.600;2023-12-22T03:59:04;3.50;99.90
26954;DHT22;14508;50.924;11.600;2023-12-22T04:01:32;3.60;99.90
26954;DHT22;14508;50.924;11.600;2023-12-22T04:04:00;3.50;99.90
26954;DHT22;14508;50.924;11.600;2023-12-22T04:06:29;3.50;99.90
26954;DHT22;14508;50.924;11.600;2023-12-22T04:08:57;3.50;99.90
26954;DHT22;14508;50.924;11.600;2023-12-22T04:11:25;3.50;99.90
26954;DHT22;14508;50.924;11.600;2023-12-22T04:13:53;3.50;99.90
26954;DHT22;14508;50.924;11.600;2023-12-22T04:16:20;3.40;99.90
26954;DHT22;14508;50.924;11.600;2023-12-22T04:18:48;3.30;99.90
26954;DHT22;14508;50.924;11.600;2023-12-22T04:21:16;3.20;99.90
26954;DHT22;14508;50.924;11.600;2023-12-22T04:23:45;3.20;99.90
26954;DHT22;14508;50.924;11.600;2023-12-22T04:26:13;3.10;99.90
26954;DHT22;14508;50.924;11.600;2023-12-22T04:28:41;3.00;99.90
26954;DHT22;14508;50.924;11.600;2023-12-22T04:31:09;3.00;99.90
26954;DHT22;14508;50.924;11.600;2023-12-22T04:33:37;3.00;99.90
26954;DHT22;14508;50.924;11.600;2023-12-22T04:36:05;2.90;99.90
26954;DHT22;14508;50.924;11.600;2023-12-22T04:38:34;2.80;99.90
26954;DHT22;14508;50.924;11.600;2023-12-22T04:41:03;2.80;99.90
26954;DHT22;14508;50.924;11.600;2023-12-22T04:43:31;2.90;99.90
26954;DHT22;14508;50.924;11.600;2023-12-22T04:45:59;2.90;99.90
26954;DHT22;14508;50.924;11.600;2023-12-22T04:48:27;2.80;99.90
26954;DHT22;14508;50.924;11.600;2023-12-22T04:50:54;2.80;99.90
26954;DHT22;14508;50.924;11.600;2023-12-22T04:53:22;2.90;99.90
26954;DHT22;14508;50.924;11.600;2023-12-22T04:55:50;2.90;99.90
26954;DHT22;14508;50.924;11.600;2023-12-22T04:58:20;2.80;99.90
26954;DHT22;14508;50.924;11.600;2023-12-22T05:00:48;2.80;99.90
26954;DHT22;14508;50.924;11.600;2023-12-22T05:03:16;2.90;99.90
26954;DHT22;14508;50.924;11.600;2023-12-22T05:05:44;2.90;99.90
26954;DHT22;14508;50.924;11.600;2023-12-22T05:12:25;2.90;99.90
26954;DHT22;14508;50.924;11.600;2023-12-22T05:14:54;2.90;99.90
26954;DHT22;14508;50.924;11.600;2023-12-22T05:17:22;2.90;99.90
26954;DHT22;14508;50.924;11.600;2023-12-22T05:19:50;2.90;99.90
26954;DHT22;14508;50.924;11.600;2023-12-22T05:22:18;2.90;99.90
26954;DHT22;14508;50.924;11.600;2023-12-22T05:24:46;2.90;99.90
26954;DHT22;14508;50.924;11.600;2023-12-22T05:27:14;3.00;99.90
26954;DHT22;14508;50.924;11.600;2023-12-22T05:29:42;3.00;99.90
26954;DHT22;14508;50.924;11.600;2023-12-22T05:32:15;3.10;99.90
26954;DHT22;14508;50.924;11.600;2023-12-22T05:34:44;3.10;99.90
26954;DHT22;14508;50.924;11.600;2023-12-22T05:37:12;3.10;99.90
26954;DHT22;14508;50.924;11.600;2023-12-22T05:39:40;3.10;99.90
26954;DHT22;14508;50.924;11.600;2023-12-22T05:42:10;3.00;99.90
26954;DHT22;14508;50.924;11.600;2023-12-22T05:44:38;3.00;99.90
26954;DHT22;14508;50.924;11.600;2023-12-22T05:47:06;3.00;99.90
26954;DHT22;14508;50.924;11.600;2023-12-22T05:49:35;3.00;99.90
26954;DHT22;14508;50.924;11.600;2023-12-22T05:52:03;2.90;99.90
26954;DHT22;14508;50.924;11.600;2023-12-22T05:54:31;2.90;99.90
26954;DHT22;14508;50.924;11.600;2023-12-22T05:56:59;2.90;99.90
26954;DHT22;14508;50.924;11.600;2023-12-22T05:59:27;3.00;99.90
26954;DHT22;14508;50.924;11.600;2023-12-22T06:01:56;3.00;99.90
26954;DHT22;14508;50.924;11.600;2023-12-22T06:04:25;3.00;99.90
26954;DHT22;14508;50.924;11.600;2023-12-22T06:06:54;3.20;99.90
26954;DHT22;14508;50.924;11.600;2023-12-22T06:09:22;3.20;99.90
26954;DHT22;14508;50.924;11.600;2023-12-22T06:11:50;3.30;99.90
26954;DHT22;14508;50.924;11.600;2023-12-22T06:14:18;3.30;99.90
26954;DHT22;14508;50.924;11.600;2023-12-22T06:16:46;3.40;99.90
26954;DHT22;14508;50.924;11.600;2023-12-22T06:19:14;3.50;99.90
26954;DHT22;14508;50.924;11.600;2023-12-22T06:21:43;3.60;99.90
26954;DHT22;14508;50.924;11.600;2023-12-22T06:24:12;3.70;99.90
26954;DHT22;14508;50.924;11.600;2023-12-22T06:26:40;3.70;99.90
26954;DHT22;14508;50.924;11.600;2023-12-22T06:29:08;3.80;99.90
26954;DHT22;14508;50.924;11.600;2023-12-22T06:31:37;3.90;99.90
26954;DHT22;14508;50.924;11.600;2023-12-22T06:34:04;3.90;99.90
26954;DHT22;14508;50.924;11.600;2023-12-22T06:36:32;3.90;99.90
26954;DHT22;14508;50.924;11.600;2023-12-22T06:39:00;3.90;99.90
26954;DHT22;14508;50.924;11.600;2023-12-22T06:41:30;3.90;99.90
26954;DHT22;14508;50.924;11.600;2023-12-22T06:43:59;3.90;99.90
26954;DHT22;14508;50.924;11.600;2023-12-22T06:46:28;3.90;99.90
26954;DHT22;14508;50.924;11.600;2023-12-22T06:48:57;3.90;99.90
26954;DHT22;14508;50.924;11.600;2023-12-22T06:51:29;3.90;99.90
26954;DHT22;14508;50.924;11.600;2023-12-22T06:53:57;3.90;99.90
26954;DHT22;14508;50.924;11.600;2023-12-22T06:56:34;3.90;99.90
26954;DHT22;14508;50.924;11.600;2023-12-22T06:59:02;4.00;99.90
26954;DHT22;14508;50.924;11.600;2023-12-22T07:01:31;4.10;99.90
26954;DHT22;14508;50.924;11.600;2023-12-22T07:04:01;4.10;99.90
26954;DHT22;14508;50.924;11.600;2023-12-22T07:06:30;4.20;99.90
26954;DHT22;14508;50.924;11.600;2023-12-22T07:09:30;4.30;99.90
26954;DHT22;14508;50.924;11.600;2023-12-22T07:12:00;4.40;99.90
26954;DHT22;14508;50.924;11.600;2023-12-22T07:14:27;4.40;99.90
26954;DHT22;14508;50.924;11.600;2023-12-22T07:16:55;4.40;99.90
26954;DHT22;14508;50.924;11.600;2023-12-22T07:19:25;4.40;99.90
26954;DHT22;14508;50.924;11.600;2023-12-22T07:21:53;4.40;99.90
26954;DHT22;14508;50.924;11.600;2023-12-22T07:24:20;4.50;99.90
26954;DHT22;14508;50.924;11.600;2023-12-22T07:26:48;4.70;99.90
26954;DHT22;14508;50.924;11.600;2023-12-22T07:29:17;4.70;99.90
26954;DHT22;14508;50.924;11.600;2023-12-22T07:31:45;4.70;99.90
26954;DHT22;14508;50.924;11.600;2023-12-22T07:34:13;4.70;99.90
26954;DHT22;14508;50.924;11.600;2023-12-22T07:36:41;4.70;99.90
26954;DHT22;14508;50.924;11.600;2023-12-22T07:39:20;4.80;99.90
26954;DHT22;14508;50.924;11.600;2023-12-22T07:41:49;4.80;99.90
26954;DHT22;14508;50.924;11.600;2023-12-22T07:44:18;4.80;99.90
26954;DHT22;14508;50.924;11.600;2023-12-22T07:46:53;4.80;99.90
26954;DHT22;14508;50.924;11.600;2023-12-22T07:49:23;4.70;99.90
26954;DHT22;14508;50.924;11.600;2023-12-22T07:51:52;4.80;99.90
26954;DHT22;14508;50.924;11.600;2023-12-22T07:54:20;4.90;99.90
26954;DHT22;14508;50.924;11.600;2023-12-22T07:56:48;4.80;99.90
26954;DHT22;14508;50.924;11.600;2023-12-22T07:59:18;4.70;99.90
26954;DHT22;14508;50.924;11.600;2023-12-22T08:01:56;4.60;99.90
26954;DHT22;14508;50.924;11.600;2023-12-22T08:04:24;4.50;99.90
26954;DHT22;14508;50.924;11.600;2023-12-22T08:06:52;4.40;99.90
26954;DHT22;14508;50.924;11.600;2023-12-22T08:09:20;4.50;99.90
26954;DHT22;14508;50.924;11.600;2023-12-22T08:11:49;4.50;99.90
26954;DHT22;14508;50.924;11.600;2023-12-22T08:14:21;4.40;99.90
26954;DHT22;14508;50.924;11.600;2023-12-22T08:16:49;4.40;99.90
26954;DHT22;14508;50.924;11.600;2023-12-22T08:19:17;4.30;99.90
26954;DHT22;14508;50.924;11.600;2023-12-22T08:21:48;4.30;99.90
26954;DHT22;14508;50.924;11.600;2023-12-22T08:24:18;4.30;99.90
26954;DHT22;14508;50.924;11.600;2023-12-22T08:26:49;4.20;99.90
26954;DHT22;14508;50.924;11.600;2023-12-22T08:29:18;4.30;99.90
26954;DHT22;14508;50.924;11.600;2023-12-22T08:31:48;4.30;99.90
26954;DHT22;14508;50.924;11.600;2023-12-22T08:34:16;4.30;99.90
26954;DHT22;14508;50.924;11.600;2023-12-22T08:36:44;4.10;99.90
26954;DHT22;14508;50.924;11.600;2023-12-22T08:39:12;3.90;99.90
26954;DHT22;14508;50.924;11.600;2023-12-22T08:41:41;3.70;99.90
26954;DHT22;14508;50.924;11.600;2023-12-22T08:44:09;3.60;99.90
26954;DHT22;14508;50.924;11.600;2023-12-22T08:46:37;3.50;99.90
26954;DHT22;14508;50.924;11.600;2023-12-22T08:49:06;3.50;99.90
26954;DHT22;14508;50.924;11.600;2023-12-22T08:51:35;3.40;99.90
26954;DHT22;14508;50.924;11.600;2023-12-22T08:54:03;3.50;99.90
26954;DHT22;14508;50.924;11.600;2023-12-22T08:56:31;3.50;99.90
26954;DHT22;14508;50.924;11.600;2023-12-22T08:58:59;3.60;99.90
26954;DHT22;14508;50.924;11.600;2023-12-22T09:01:27;3.60;99.90
26954;DHT22;14508;50.924;11.600;2023-12-22T09:03:55;3.80;99.90
26954;DHT22;14508;50.924;11.600;2023-12-22T09:06:24;4.00;99.90
26954;DHT22;14508;50.924;11.600;2023-12-22T09:08:53;4.10;99.90
26954;DHT22;14508;50.924;11.600;2023-12-22T09:11:21;4.20;99.90
26954;DHT22;14508;50.924;11.600;2023-12-22T09:13:49;4.40;99.90
26954;DHT22;14508;50.924;11.600;2023-12-22T09:16:21;4.60;99.90
26954;DHT22;14508;50.924;11.600;2023-12-22T09:18:49;4.80;99.90
26954;DHT22;14508;50.924;11.600;2023-12-22T09:21:18;5.00;99.90
26954;DHT22;14508;50.924;11.600;2023-12-22T09:23:47;5.10;99.90
26954;DHT22;14508;50.924;11.600;2023-12-22T09:26:16;5.00;99.90
26954;DHT22;14508;50.924;11.600;2023-12-22T09:28:45;5.10;99.90
26954;DHT22;14508;50.924;11.600;2023-12-22T09:31:13;5.10;99.90
26954;DHT22;14508;50.924;11.600;2023-12-22T09:33:42;5.20;99.90
26954;DHT22;14508;50.924;11.600;2023-12-22T09:36:10;5.30;99.90
26954;DHT22;14508;50.924;11.600;2023-12-22T09:38:38;5.40;99.90
26954;DHT22;14508;50.924;11.600;2023-12-22T09:41:08;5.40;99.90
26954;DHT22;14508;50.924;11.600;2023-12-22T09:43:37;5.60;99.90
26954;DHT22;14508;50.924;11.600;2023-12-22T09:46:07;5.60;99.90
26954;DHT22;14508;50.924;11.600;2023-12-22T09:48:37;5.70;99.90
26954;DHT22;14508;50.924;11.600;2023-12-22T09:51:07;5.70;99.90
26954;DHT22;14508;50.924;11.600;2023-12-22T09:53:36;5.80;99.90
26954;DHT22;14508;50.924;11.600;2023-12-22T09:56:07;5.80;99.90
26954;DHT22;14508;50.924;11.600;2023-12-22T09:58:36;5.90;99.90
26954;DHT22;14508;50.924;11.600;2023-12-22T10:01:05;5.90;99.90
26954;DHT22;14508;50.924;11.600;2023-12-22T10:03:34;6.00;99.90
26954;DHT22;14508;50.924;11.600;2023-12-22T10:06:03;6.10;99.90
26954;DHT22;14508;50.924;11.600;2023-12-22T10:08:32;6.20;99.90
26954;DHT22;14508;50.924;11.600;2023-12-22T10:11:01;6.20;99.90
26954;DHT22;14508;50.924;11.600;2023-12-22T10:13:31;6.20;99.90
26954;DHT22;14508;50.924;11.600;2023-12-22T10:16:01;6.20;99.90
26954;DHT22;14508;50.924;11.600;2023-12-22T10:18:30;6.30;99.90
26954;DHT22;14508;50.924;11.600;2023-12-22T10:20:58;6.40;99.90
26954;DHT22;14508;50.924;11.600;2023-12-22T10:23:26;6.40;99.90
26954;DHT22;14508;50.924;11.600;2023-12-22T10:25:54;6.40;99.90
26954;DHT22;14508;50.924;11.600;2023-12-22T10:28:27;6.40;99.90
26954;DHT22;14508;50.924;11.600;2023-12-22T10:30:56;6.50;99.90
26954;DHT22;14508;50.924;11.600;2023-12-22T10:33:30;6.50;99.90
26954;DHT22;14508;50.924;11.600;2023-12-22T10:35:58;6.60;99.80
26954;DHT22;14508;50.924;11.600;2023-12-22T10:38:32;6.70;98.80
26954;DHT22;14508;50.924;11.600;2023-12-22T10:41:00;6.70;98.90
26954;DHT22;14508;50.924;11.600;2023-12-22T10:43:29;6.60;99.90
26954;DHT22;14508;50.924;11.600;2023-12-22T10:45:58;6.70;98.60
26954;DHT22;14508;50.924;11.600;2023-12-22T10:48:26;6.70;98.80
26954;DHT22;14508;50.924;11.600;2023-12-22T10:50:54;6.70;98.70
26954;DHT22;14508;50.924;11.600;2023-12-22T10:53:22;6.70;98.70
26954;DHT22;14508;50.924;11.600;2023-12-22T10:55:51;6.70;98.30
26954;DHT22;14508;50.924;11.600;2023-12-22T10:58:19;6.80;98.40
26954;DHT22;14508;50.924;11.600;2023-12-22T11:00:48;6.80;98.50
26954;DHT22;14508;50.924;11.600;2023-12-22T11:03:23;6.80;98.50
26954;DHT22;14508;50.924;11.600;2023-12-22T11:05:54;6.80;98.70
26954;DHT22;14508;50.924;11.600;2023-12-22T11:08:26;6.80;98.50
26954;DHT22;14508;50.924;11.600;2023-12-22T11:10:57;6.90;98.30
26954;DHT22;14508;50.924;11.600;2023-12-22T11:13:26;6.80;98.50
26954;DHT22;14508;50.924;11.600;2023-12-22T11:15:57;6.80;98.40
26954;DHT22;14508;50.924;11.600;2023-12-22T11:18:27;6.80;97.10
26954;DHT22;14508;50.924;11.600;2023-12-22T11:20:56;6.90;97.90
26954;DHT22;14508;50.924;11.600;2023-12-22T11:23:26;6.90;98.20
26954;DHT22;14508;50.924;11.600;2023-12-22T11:25:55;6.90;98.20
26954;DHT22;14508;50.924;11.600;2023-12-22T11:28:23;6.90;98.50
26954;DHT22;14508;50.924;11.600;2023-12-22T11:30:52;6.90;98.20
26954;DHT22;14508;50.924;11.600;2023-12-22T11:33:26;6.90;98.90
26954;DHT22;14508;50.924;11.600;2023-12-22T11:35:57;6.90;98.80
26954;DHT22;14508;50.924;11.600;2023-12-22T11:38:25;7.00;99.10
26954;DHT22;14508;50.924;11.600;2023-12-22T11:40:53;6.90;99.70
26954;DHT22;14508;50.924;11.600;2023-12-22T11:43:22;7.00;99.50
26954;DHT22;14508;50.924;11.600;2023-12-22T11:45:50;7.00;99.90
26954;DHT22;14508;50.924;11.600;2023-12-22T11:48:18;7.00;99.90
26954;DHT22;14508;50.924;11.600;2023-12-22T11:50:49;7.00;99.90
26954;DHT22;14508;50.924;11.600;2023-12-22T11:53:21;6.90;99.90
26954;DHT22;14508;50.924;11.600;2023-12-22T11:55:56;6.90;99.90
26954;DHT22;14508;50.924;11.600;2023-12-22T11:58:34;6.90;99.90
26954;DHT22;14508;50.924;11.600;2023-12-22T12:01:05;6.90;99.90
26954;DHT22;14508;50.924;11.600;2023-12-22T12:03:36;6.80;99.90
26954;DHT22;14508;50.924;11.600;2023-12-22T12:06:22;6.80;99.90
26954;DHT22;14508;50.924;11.600;2023-12-22T12:08:58;6.80;99.90
26954;DHT22;14508;50.924;11.600;2023-12-22T12:14:32;6.70;99.90
26954;DHT22;14508;50.924;11.600;2023-12-22T12:17:05;6.70;99.90
26954;DHT22;14508;50.924;11.600;2023-12-22T12:19:34;6.70;99.90
26954;DHT22;14508;50.924;11.600;2023-12-22T12:22:05;6.70;99.90
26954;DHT22;14508;50.924;11.600;2023-12-22T12:24:34;6.60;99.90
26954;DHT22;14508;50.924;11.600;2023-12-22T12:27:03;6.60;99.90
26954;DHT22;14508;50.924;11.600;2023-12-22T12:29:32;6.70;99.90
26954;DHT22;14508;50.924;11.600;2023-12-22T12:32:04;6.60;99.90
26954;DHT22;14508;50.924;11.600;2023-12-22T12:34:32;6.60;99.90
26954;DHT22;14508;50.924;11.600;2023-12-22T12:37:01;6.60;99.90
26954;DHT22;14508;50.924;11.600;2023-12-22T12:39:34;6.60;99.90
26954;DHT22;14508;50.924;11.600;2023-12-22T12:42:02;6.60;99.90
26954;DHT22;14508;50.924;11.600;2023-12-22T12:44:35;6.60;99.90
26954;DHT22;14508;50.924;11.600;2023-12-22T12:47:11;6.60;99.90
26954;DHT22;14508;50.924;11.600;2023-12-22T12:49:40;6.60;99.90
26954;DHT22;14508;50.924;11.600;2023-12-22T12:52:12;6.60;99.90
26954;DHT22;14508;50.924;11.600;2023-12-22T12:54:42;6.60;99.90
26954;DHT22;14508;50.924;11.600;2023-12-22T12:57:14;6.60;99.90
26954;DHT22;14508;50.924;11.600;2023-12-22T12:59:45;6.60;99.90
26954;DHT22;14508;50.924;11.600;2023-12-22T13:02:13;6.60;99.90
26954;DHT22;14508;50.924;11.600;2023-12-22T13:04:41;6.60;99.90
26954;DHT22;14508;50.924;11.600;2023-12-22T13:07:09;6.60;99.90
26954;DHT22;14508;50.924;11.600;2023-12-22T13:09:40;6.70;99.90
26954;DHT22;14508;50.924;11.600;2023-12-22T13:12:11;6.70;99.90
26954;DHT22;14508;50.924;11.600;2023-12-22T13:14:39;6.70;99.90
26954;DHT22;14508;50.924;11.600;2023-12-22T13:17:07;6.70;99.90
26954;DHT22;14508;50.924;11.600;2023-12-22T13:19:37;6.70;99.90
26954;DHT22;14508;50.924;11.600;2023-12-22T13:22:05;6.80;99.90
26954;DHT22;14508;50.924;11.600;2023-12-22T13:24:33;6.70;99.90
26954;DHT22;14508;50.924;11.600;2023-12-22T13:27:03;6.80;99.90
26954;DHT22;14508;50.924;11.600;2023-12-22T13:29:44;6.70;99.90
26954;DHT22;14508;50.924;11.600;2023-12-22T13:32:17;6.70;99.90
26954;DHT22;14508;50.924;11.600;2023-12-22T13:34:49;6.70;99.90
26954;DHT22;14508;50.924;11.600;2023-12-22T13:37:18;6.70;99.90
26954;DHT22;14508;50.924;11.600;2023-12-22T13:39:46;6.70;99.90
26954;DHT22;14508;50.924;11.600;2023-12-22T13:42:15;6.80;99.90
26954;DHT22;14508;50.924;11.600;2023-12-22T13:44:46;6.80;99.90
26954;DHT22;14508;50.924;11.600;2023-12-22T13:47:16;6.80;99.90
26954;DHT22;14508;50.924;11.600;2023-12-22T13:49:44;6.80;99.90
26954;DHT22;14508;50.924;11.600;2023-12-22T13:52:25;6.80;99.90
26954;DHT22;14508;50.924;11.600;2023-12-22T13:54:54;6.80;99.90
26954;DHT22;14508;50.924;11.600;2023-12-22T13:57:25;6.70;99.90
26954;DHT22;14508;50.924;11.600;2023-12-22T13:59:54;6.70;99.90
26954;DHT22;14508;50.924;11.600;2023-12-22T14:02:22;6.70;99.90
26954;DHT22;14508;50.924;11.600;2023-12-22T14:04:51;6.70;99.90
26954;DHT22;14508;50.924;11.600;2023-12-22T14:07:19;6.70;99.90
26954;DHT22;14508;50.924;11.600;2023-12-22T14:09:47;6.70;99.90
26954;DHT22;14508;50.924;11.600;2023-12-22T14:12:15;6.70;99.90
26954;DHT22;14508;50.924;11.600;2023-12-22T14:14:56;6.80;99.90
26954;DHT22;14508;50.924;11.600;2023-12-22T14:17:24;6.70;99.90
26954;DHT22;14508;50.924;11.600;2023-12-22T14:19:51;6.80;99.90
26954;DHT22;14508;50.924;11.600;2023-12-22T14:22:19;6.80;99.90
26954;DHT22;14508;50.924;11.600;2023-12-22T14:24:47;6.70;99.90
26954;DHT22;14508;50.924;11.600;2023-12-22T14:27:15;6.70;99.90
26954;DHT22;14508;50.924;11.600;2023-12-22T14:29:44;6.80;99.90
26954;DHT22;14508;50.924;11.600;2023-12-22T14:32:14;6.70;99.90
26954;DHT22;14508;50.924;11.600;2023-12-22T14:34:45;6.70;99.90
26954;DHT22;14508;50.924;11.600;2023-12-22T14:37:14;6.70;99.90
26954;DHT22;14508;50.924;11.600;2023-12-22T14:39:43;6.80;99.90
26954;DHT22;14508;50.924;11.600;2023-12-22T14:42:12;6.70;99.90
26954;DHT22;14508;50.924;11.600;2023-12-22T14:44:40;6.80;99.90
26954;DHT22;14508;50.924;11.600;2023-12-22T14:47:08;6.80;99.90
26954;DHT22;14508;50.924;11.600;2023-12-22T14:49:41;6.80;99.90
26954;DHT22;14508;50.924;11.600;2023-12-22T14:52:09;6.80;99.90
26954;DHT22;14508;50.924;11.600;2023-12-22T14:54:37;6.80;99.90
26954;DHT22;14508;50.924;11.600;2023-12-22T14:57:05;6.80;99.90
26954;DHT22;14508;50.924;11.600;2023-12-22T14:59:32;6.80;99.90
26954;DHT22;14508;50.924;11.600;2023-12-22T15:02:00;6.70;99.90
26954;DHT22;14508;50.924;11.600;2023-12-22T15:04:31;6.70;99.90
26954;DHT22;14508;50.924;11.600;2023-12-22T15:07:00;6.60;99.90
26954;DHT22;14508;50.924;11.600;2023-12-22T15:09:30;6.70;99.90
26954;DHT22;14508;50.924;11.600;2023-12-22T15:11:58;6.70;99.90
26954;DHT22;14508;50.924;11.600;2023-12-22T15:14:28;6.70;99.90
26954;DHT22;14508;50.924;11.600;2023-12-22T15:16:55;6.70;99.90
26954;DHT22;14508;50.924;11.600;2023-12-22T15:19:23;6.60;99.90
26954;DHT22;14508;50.924;11.600;2023-12-22T15:21:53;6.60;99.90
26954;DHT22;14508;50.924;11.600;2023-12-22T15:24:23;6.60;99.90
26954;DHT22;14508;50.924;11.600;2023-12-22T15:26:53;6.60;99.90
26954;DHT22;14508;50.924;11.600;2023-12-22T15:29:20;6.60;99.90
26954;DHT22;14508;50.924;11.600;2023-12-22T15:31:48;6.60;99.90
26954;DHT22;14508;50.924;11.600;2023-12-22T15:34:18;6.50;99.90
26954;DHT22;14508;50.924;11.600;2023-12-22T15:36:46;6.40;99.90
26954;DHT22;14508;50.924;11.600;2023-12-22T15:39:14;6.40;99.90
26954;DHT22;14508;50.924;11.600;2023-12-22T15:41:45;6.30;99.90
26954;DHT22;14508;50.924;11.600;2023-12-22T15:44:13;6.20;99.90
26954;DHT22;14508;50.924;11.600;2023-12-22T15:46:41;6.10;99.90
26954;DHT22;14508;50.924;11.600;2023-12-22T15:49:09;6.10;99.90